AIQ659 VVTS-VTBD
Flight info
| Callsign | AIQ659 |
|---|---|
| Flight time | 1h 14m |
| Altitude | 36000 |
| Route | SAPEN5A SAPEN R468 ELMOP P629 NUGPA DCT SEHNA SEHNA3A |
| Aircraft | A320/M-SDE3FGHIRWY/LB1 |
Departure
| Time | 2026-05-06 14:42 |
|---|---|
| Airport | Tan Son Nhat International Airport (VVTS) |
Arrival
| Time | 2026-05-06 15:56 |
|---|---|
| Airport | Don Mueang International Airport (VTBD) |
| Time | Latitude | Longitude | Altitude | Speed | Heading |
|---|---|---|---|---|---|
| 2026-05-06 14:26 | 10.81724 | 106.66310 | 41 ft | 0 kts | 162° |
| 2026-05-06 14:34 | 10.81725 | 106.66310 | 41 ft | 1 kts | 162° |
| 2026-05-06 14:34 | 10.81741 | 106.66305 | 37 ft | 3 kts | 162° |
| 2026-05-06 14:34 | 10.81760 | 106.66298 | 38 ft | 3 kts | 159° |
| 2026-05-06 14:34 | 10.81779 | 106.66290 | 39 ft | 3 kts | 149° |
| 2026-05-06 14:35 | 10.81796 | 106.66279 | 40 ft | 3 kts | 149° |
| 2026-05-06 14:35 | 10.81813 | 106.66269 | 42 ft | 3 kts | 144° |
| 2026-05-06 14:35 | 10.81821 | 106.66263 | 40 ft | 1 kts | 142° |
| 2026-05-06 14:35 | 10.81822 | 106.66262 | 41 ft | 0 kts | 142° |
| 2026-05-06 14:38 | 10.81819 | 106.66268 | 42 ft | 5 kts | 119° |
| 2026-05-06 14:38 | 10.81845 | 106.66325 | 42 ft | 13 kts | 68° |
| 2026-05-06 14:38 | 10.81884 | 106.66433 | 40 ft | 18 kts | 68° |
| 2026-05-06 14:39 | 10.81930 | 106.66554 | 42 ft | 19 kts | 69° |
| 2026-05-06 14:39 | 10.81979 | 106.66686 | 40 ft | 20 kts | 69° |
| 2026-05-06 14:39 | 10.82032 | 106.66825 | 43 ft | 22 kts | 69° |
| 2026-05-06 14:39 | 10.82125 | 106.66937 | 44 ft | 19 kts | 37° |
| 2026-05-06 14:40 | 10.82214 | 106.67010 | 45 ft | 16 kts | 28° |
| 2026-05-06 14:40 | 10.82282 | 106.66999 | 45 ft | 0 kts | 341° |
| 2026-05-06 14:40 | 10.82285 | 106.66997 | 45 ft | 4 kts | 339° |
| 2026-05-06 14:41 | 10.82334 | 106.66959 | 44 ft | 12 kts | 318° |
| 2026-05-06 14:41 | 10.82345 | 106.66885 | 44 ft | 8 kts | 249° |
| 2026-05-06 14:41 | 10.82259 | 106.66656 | 41 ft | 72 kts | 248° |
| 2026-05-06 14:41 | 10.82002 | 106.65977 | 42 ft | 133 kts | 249° |
| 2026-05-06 14:42 | 10.81610 | 106.64938 | 110 ft | 173 kts | 247° |
| 2026-05-06 14:42 | 10.81181 | 106.63790 | 722 ft | 173 kts | 248° |
| 2026-05-06 14:42 | 10.80749 | 106.62640 | 1357 ft | 176 kts | 246° |
| 2026-05-06 14:42 | 10.80283 | 106.61412 | 1715 ft | 197 kts | 246° |
| 2026-05-06 14:43 | 10.79756 | 106.60033 | 1998 ft | 219 kts | 246° |
| 2026-05-06 14:43 | 10.79174 | 106.58501 | 2287 ft | 245 kts | 247° |
| 2026-05-06 14:43 | 10.78531 | 106.56805 | 2671 ft | 269 kts | 248° |
| 2026-05-06 14:43 | 10.77910 | 106.54972 | 3349 ft | 280 kts | 259° |
| 2026-05-06 14:44 | 10.78069 | 106.53002 | 4144 ft | 284 kts | 292° |
| 2026-05-06 14:44 | 10.79004 | 106.51265 | 5001 ft | 284 kts | 307° |
| 2026-05-06 14:44 | 10.80235 | 106.49673 | 5843 ft | 286 kts | 312° |
| 2026-05-06 14:45 | 10.82825 | 106.46542 | 7420 ft | 293 kts | 310° |
| 2026-05-06 14:45 | 10.84092 | 106.44890 | 8195 ft | 297 kts | 309° |
| 2026-05-06 14:45 | 10.85310 | 106.43209 | 8970 ft | 300 kts | 307° |
| 2026-05-06 14:45 | 10.86522 | 106.41461 | 9721 ft | 304 kts | 306° |
| 2026-05-06 14:46 | 10.87736 | 106.39662 | 10192 ft | 318 kts | 305° |
| 2026-05-06 14:46 | 10.89026 | 106.37730 | 10393 ft | 340 kts | 305° |
| 2026-05-06 14:46 | 10.90379 | 106.35696 | 10864 ft | 350 kts | 305° |
| 2026-05-06 14:46 | 10.91756 | 106.33625 | 11484 ft | 355 kts | 305° |
| 2026-05-06 14:47 | 10.93137 | 106.31553 | 12128 ft | 358 kts | 305° |
| 2026-05-06 14:47 | 10.94545 | 106.29447 | 12769 ft | 362 kts | 305° |
| 2026-05-06 14:47 | 10.95970 | 106.27324 | 13407 ft | 365 kts | 305° |
| 2026-05-06 14:47 | 10.97262 | 106.25075 | 13965 ft | 370 kts | 292° |
| 2026-05-06 14:48 | 10.97907 | 106.22526 | 14492 ft | 374 kts | 281° |
| 2026-05-06 14:48 | 10.98364 | 106.19946 | 15046 ft | 376 kts | 280° |
| 2026-05-06 14:48 | 10.98817 | 106.17307 | 15598 ft | 379 kts | 280° |
| 2026-05-06 14:48 | 10.99266 | 106.14648 | 16152 ft | 381 kts | 280° |
| 2026-05-06 14:49 | 10.99718 | 106.11975 | 16693 ft | 384 kts | 280° |
| 2026-05-06 14:49 | 11.00178 | 106.09281 | 17219 ft | 387 kts | 280° |
| 2026-05-06 14:49 | 11.00646 | 106.06566 | 17735 ft | 391 kts | 280° |
| 2026-05-06 14:49 | 11.01120 | 106.03822 | 18233 ft | 394 kts | 280° |
| 2026-05-06 14:50 | 11.01594 | 106.01075 | 18689 ft | 396 kts | 280° |
| 2026-05-06 14:50 | 11.02068 | 105.98327 | 19145 ft | 398 kts | 280° |
| 2026-05-06 14:50 | 11.02547 | 105.95539 | 19617 ft | 400 kts | 280° |
| 2026-05-06 14:50 | 11.03025 | 105.92730 | 20030 ft | 404 kts | 280° |
| 2026-05-06 14:51 | 11.03503 | 105.89903 | 20463 ft | 406 kts | 280° |
| 2026-05-06 14:51 | 11.03976 | 105.87116 | 20875 ft | 409 kts | 280° |
| 2026-05-06 14:51 | 11.04461 | 105.84257 | 21312 ft | 411 kts | 280° |
| 2026-05-06 14:51 | 11.04955 | 105.81370 | 21738 ft | 413 kts | 280° |
| 2026-05-06 14:52 | 11.05454 | 105.78471 | 22180 ft | 415 kts | 280° |
| 2026-05-06 14:52 | 11.05950 | 105.75573 | 22575 ft | 418 kts | 280° |
| 2026-05-06 14:52 | 11.06443 | 105.72681 | 22960 ft | 421 kts | 280° |
| 2026-05-06 14:52 | 11.06952 | 105.69725 | 23342 ft | 424 kts | 281° |
| 2026-05-06 14:53 | 11.07739 | 105.66831 | 23691 ft | 426 kts | 290° |
| 2026-05-06 14:53 | 11.08743 | 105.63986 | 24009 ft | 428 kts | 290° |
| 2026-05-06 14:53 | 11.09733 | 105.61172 | 24338 ft | 430 kts | 289° |
| 2026-05-06 14:53 | 11.10743 | 105.58282 | 24653 ft | 433 kts | 289° |
| 2026-05-06 14:54 | 11.11750 | 105.55381 | 24981 ft | 434 kts | 289° |
| 2026-05-06 14:54 | 11.12746 | 105.52509 | 25269 ft | 437 kts | 289° |
| 2026-05-06 14:54 | 11.13766 | 105.49573 | 25565 ft | 440 kts | 289° |
| 2026-05-06 14:54 | 11.14795 | 105.46610 | 25904 ft | 442 kts | 289° |
| 2026-05-06 14:55 | 11.15811 | 105.43685 | 26202 ft | 444 kts | 289° |
| 2026-05-06 14:55 | 11.16845 | 105.40713 | 26542 ft | 445 kts | 289° |
| 2026-05-06 14:55 | 11.17886 | 105.37727 | 26818 ft | 448 kts | 289° |
| 2026-05-06 14:55 | 11.18934 | 105.34718 | 27111 ft | 450 kts | 289° |
| 2026-05-06 14:56 | 11.19983 | 105.31699 | 27372 ft | 453 kts | 289° |
| 2026-05-06 14:56 | 11.21023 | 105.28706 | 27657 ft | 455 kts | 289° |
| 2026-05-06 14:56 | 11.22085 | 105.25648 | 27994 ft | 455 kts | 289° |
| 2026-05-06 14:56 | 11.23143 | 105.22597 | 28302 ft | 457 kts | 289° |
| 2026-05-06 14:57 | 11.24206 | 105.19534 | 28607 ft | 459 kts | 289° |
| 2026-05-06 14:57 | 11.25258 | 105.16504 | 28882 ft | 461 kts | 289° |
| 2026-05-06 14:57 | 11.26329 | 105.13413 | 29154 ft | 463 kts | 289° |
| 2026-05-06 14:57 | 11.27397 | 105.10332 | 29413 ft | 465 kts | 289° |
| 2026-05-06 14:58 | 11.28479 | 105.07206 | 29696 ft | 467 kts | 289° |
| 2026-05-06 14:58 | 11.29547 | 105.04118 | 29944 ft | 469 kts | 289° |
| 2026-05-06 14:58 | 11.30632 | 105.00979 | 30161 ft | 470 kts | 289° |
| 2026-05-06 14:58 | 11.31722 | 104.97826 | 30383 ft | 472 kts | 289° |
| 2026-05-06 14:59 | 11.32819 | 104.94660 | 30602 ft | 473 kts | 289° |
| 2026-05-06 14:59 | 11.33951 | 104.91501 | 30803 ft | 475 kts | 293° |
| 2026-05-06 14:59 | 11.35457 | 104.88513 | 31061 ft | 475 kts | 302° |
| 2026-05-06 14:59 | 11.37224 | 104.85663 | 31320 ft | 475 kts | 302° |
| 2026-05-06 15:00 | 11.38971 | 104.82829 | 31646 ft | 473 kts | 302° |
| 2026-05-06 15:00 | 11.40685 | 104.80029 | 31956 ft | 472 kts | 302° |
| 2026-05-06 15:00 | 11.42400 | 104.77223 | 32272 ft | 471 kts | 302° |
| 2026-05-06 15:00 | 11.44134 | 104.74387 | 32597 ft | 470 kts | 302° |
| 2026-05-06 15:01 | 11.45864 | 104.71560 | 32904 ft | 469 kts | 302° |
| 2026-05-06 15:01 | 11.47596 | 104.68735 | 33226 ft | 468 kts | 301° |
| 2026-05-06 15:01 | 11.49320 | 104.65922 | 33545 ft | 467 kts | 301° |
| 2026-05-06 15:01 | 11.51018 | 104.63150 | 33870 ft | 466 kts | 301° |
| 2026-05-06 15:02 | 11.52740 | 104.60338 | 34142 ft | 465 kts | 301° |
| 2026-05-06 15:02 | 11.54455 | 104.57538 | 34404 ft | 464 kts | 301° |
| 2026-05-06 15:02 | 11.56164 | 104.54745 | 34677 ft | 464 kts | 301° |
| 2026-05-06 15:02 | 11.57874 | 104.51953 | 34929 ft | 463 kts | 301° |
| 2026-05-06 15:03 | 11.59586 | 104.49160 | 35184 ft | 462 kts | 301° |
| 2026-05-06 15:03 | 11.61293 | 104.46379 | 35434 ft | 461 kts | 301° |
| 2026-05-06 15:03 | 11.62995 | 104.43604 | 35678 ft | 461 kts | 301° |
| 2026-05-06 15:03 | 11.64694 | 104.40831 | 35841 ft | 461 kts | 301° |
| 2026-05-06 15:04 | 11.66362 | 104.38104 | 35881 ft | 457 kts | 301° |
| 2026-05-06 15:04 | 11.69707 | 104.32621 | 35891 ft | 452 kts | 301° |
| 2026-05-06 15:05 | 11.73037 | 104.27167 | 35892 ft | 450 kts | 301° |
| 2026-05-06 15:05 | 11.76334 | 104.21769 | 35893 ft | 450 kts | 301° |
| 2026-05-06 15:06 | 11.79654 | 104.16330 | 35896 ft | 451 kts | 301° |
| 2026-05-06 15:06 | 11.82974 | 104.10885 | 35895 ft | 452 kts | 301° |
| 2026-05-06 15:07 | 11.86293 | 104.05439 | 35908 ft | 452 kts | 301° |
| 2026-05-06 15:07 | 11.89610 | 103.99989 | 35907 ft | 452 kts | 301° |
| 2026-05-06 15:08 | 11.92915 | 103.94561 | 35907 ft | 452 kts | 301° |
| 2026-05-06 15:08 | 11.96235 | 103.89105 | 35914 ft | 451 kts | 301° |
| 2026-05-06 15:09 | 11.99523 | 103.83677 | 35909 ft | 452 kts | 301° |
| 2026-05-06 15:09 | 12.02831 | 103.78222 | 35915 ft | 452 kts | 301° |
| 2026-05-06 15:10 | 12.06152 | 103.72759 | 35918 ft | 452 kts | 301° |
| 2026-05-06 15:10 | 12.09471 | 103.67286 | 35923 ft | 452 kts | 301° |
| 2026-05-06 15:11 | 12.12770 | 103.61850 | 35934 ft | 452 kts | 301° |
| 2026-05-06 15:11 | 12.16088 | 103.56384 | 35920 ft | 451 kts | 301° |
| 2026-05-06 15:12 | 12.19373 | 103.50963 | 35922 ft | 451 kts | 301° |
| 2026-05-06 15:12 | 12.22677 | 103.45500 | 35929 ft | 451 kts | 301° |
| 2026-05-06 15:13 | 12.25978 | 103.40038 | 35929 ft | 451 kts | 301° |
| 2026-05-06 15:13 | 12.28730 | 103.35489 | 35929 ft | 450 kts | 301° |
| 2026-05-06 15:14 | 12.32012 | 103.30062 | 35921 ft | 450 kts | 301° |
| 2026-05-06 15:14 | 12.35312 | 103.24606 | 35919 ft | 450 kts | 301° |
| 2026-05-06 15:15 | 12.38576 | 103.19206 | 35925 ft | 450 kts | 301° |
| 2026-05-06 15:15 | 12.41873 | 103.13748 | 35925 ft | 450 kts | 301° |
| 2026-05-06 15:16 | 12.45143 | 103.08325 | 35907 ft | 450 kts | 301° |
| 2026-05-06 15:16 | 12.48427 | 103.02883 | 35919 ft | 449 kts | 301° |
| 2026-05-06 15:17 | 12.51703 | 102.97438 | 35920 ft | 449 kts | 301° |
| 2026-05-06 15:17 | 12.54986 | 102.91984 | 35920 ft | 449 kts | 301° |
| 2026-05-06 15:18 | 12.58257 | 102.86535 | 35917 ft | 448 kts | 300° |
| 2026-05-06 15:18 | 12.61509 | 102.81121 | 35909 ft | 448 kts | 301° |
| 2026-05-06 15:19 | 12.64791 | 102.75670 | 35905 ft | 448 kts | 301° |
| 2026-05-06 15:19 | 12.68044 | 102.70259 | 35900 ft | 448 kts | 301° |
| 2026-05-06 15:20 | 12.71312 | 102.64810 | 35894 ft | 449 kts | 301° |
| 2026-05-06 15:20 | 12.74595 | 102.59340 | 35896 ft | 449 kts | 301° |
| 2026-05-06 15:21 | 12.77837 | 102.53912 | 35897 ft | 449 kts | 298° |
| 2026-05-06 15:21 | 12.80287 | 102.48036 | 35895 ft | 448 kts | 290° |
| 2026-05-06 15:22 | 12.82544 | 102.42072 | 35892 ft | 448 kts | 290° |
| 2026-05-06 15:22 | 12.84785 | 102.36153 | 35893 ft | 448 kts | 290° |
| 2026-05-06 15:23 | 12.87058 | 102.30182 | 35898 ft | 448 kts | 290° |
| 2026-05-06 15:23 | 12.89317 | 102.24250 | 35899 ft | 448 kts | 290° |
| 2026-05-06 15:24 | 12.91567 | 102.18327 | 35895 ft | 448 kts | 290° |
| 2026-05-06 15:24 | 12.93829 | 102.12378 | 35897 ft | 448 kts | 290° |
| 2026-05-06 15:25 | 12.96090 | 102.06429 | 35897 ft | 447 kts | 290° |
| 2026-05-06 15:25 | 12.98343 | 102.00489 | 35896 ft | 447 kts | 290° |
| 2026-05-06 15:26 | 13.00589 | 101.94538 | 35897 ft | 447 kts | 290° |
| 2026-05-06 15:26 | 13.01337 | 101.92553 | 35796 ft | 453 kts | 290° |
| 2026-05-06 15:26 | 13.02861 | 101.88520 | 35229 ft | 458 kts | 290° |
| 2026-05-06 15:26 | 13.04023 | 101.85450 | 34445 ft | 462 kts | 291° |
| 2026-05-06 15:27 | 13.05184 | 101.82386 | 33920 ft | 458 kts | 291° |
| 2026-05-06 15:27 | 13.06342 | 101.79335 | 33285 ft | 456 kts | 291° |
| 2026-05-06 15:27 | 13.07477 | 101.76343 | 32723 ft | 452 kts | 291° |
| 2026-05-06 15:27 | 13.08616 | 101.73334 | 32129 ft | 449 kts | 291° |
| 2026-05-06 15:28 | 13.09737 | 101.70364 | 31579 ft | 446 kts | 291° |
| 2026-05-06 15:28 | 13.10853 | 101.67408 | 31013 ft | 444 kts | 291° |
| 2026-05-06 15:28 | 13.11956 | 101.64490 | 30455 ft | 442 kts | 291° |
| 2026-05-06 15:28 | 13.13063 | 101.61556 | 29904 ft | 440 kts | 291° |
| 2026-05-06 15:29 | 13.14164 | 101.58633 | 29306 ft | 437 kts | 291° |
| 2026-05-06 15:29 | 13.15259 | 101.55727 | 28774 ft | 433 kts | 291° |
| 2026-05-06 15:29 | 13.16339 | 101.52863 | 28254 ft | 429 kts | 291° |
| 2026-05-06 15:29 | 13.17409 | 101.50026 | 27747 ft | 425 kts | 291° |
| 2026-05-06 15:30 | 13.18444 | 101.47279 | 27232 ft | 421 kts | 291° |
| 2026-05-06 15:30 | 13.19486 | 101.44509 | 26724 ft | 418 kts | 291° |
| 2026-05-06 15:30 | 13.20524 | 101.41750 | 26310 ft | 412 kts | 291° |
| 2026-05-06 15:30 | 13.21550 | 101.39015 | 25842 ft | 408 kts | 291° |
| 2026-05-06 15:31 | 13.22525 | 101.36421 | 25384 ft | 406 kts | 291° |
| 2026-05-06 15:31 | 13.23540 | 101.33720 | 24908 ft | 403 kts | 291° |
| 2026-05-06 15:31 | 13.24550 | 101.31033 | 24415 ft | 401 kts | 291° |
| 2026-05-06 15:32 | 13.26542 | 101.25726 | 23426 ft | 398 kts | 291° |
| 2026-05-06 15:32 | 13.27540 | 101.23062 | 22860 ft | 397 kts | 292° |
| 2026-05-06 15:32 | 13.28517 | 101.20460 | 22366 ft | 394 kts | 292° |
| 2026-05-06 15:32 | 13.29449 | 101.17824 | 21865 ft | 392 kts | 286° |
| 2026-05-06 15:33 | 13.29992 | 101.15106 | 21550 ft | 385 kts | 281° |
| 2026-05-06 15:33 | 13.30466 | 101.12420 | 21291 ft | 380 kts | 281° |
| 2026-05-06 15:33 | 13.30943 | 101.09766 | 21047 ft | 377 kts | 281° |
| 2026-05-06 15:33 | 13.31423 | 101.07116 | 20808 ft | 376 kts | 281° |
| 2026-05-06 15:34 | 13.31901 | 101.04481 | 20569 ft | 374 kts | 281° |
| 2026-05-06 15:34 | 13.32357 | 101.01950 | 20342 ft | 373 kts | 281° |
| 2026-05-06 15:34 | 13.32840 | 100.99261 | 20095 ft | 372 kts | 281° |
| 2026-05-06 15:34 | 13.33302 | 100.96683 | 19879 ft | 370 kts | 281° |
| 2026-05-06 15:35 | 13.33761 | 100.94116 | 19865 ft | 369 kts | 281° |
| 2026-05-06 15:35 | 13.34223 | 100.91521 | 19777 ft | 373 kts | 281° |
| 2026-05-06 15:35 | 13.34688 | 100.88914 | 19866 ft | 370 kts | 281° |
| 2026-05-06 15:35 | 13.35154 | 100.86318 | 19871 ft | 370 kts | 281° |
| 2026-05-06 15:36 | 13.35620 | 100.83721 | 19867 ft | 370 kts | 281° |
| 2026-05-06 15:36 | 13.36085 | 100.81116 | 19868 ft | 370 kts | 281° |
| 2026-05-06 15:36 | 13.36552 | 100.78510 | 19868 ft | 370 kts | 281° |
| 2026-05-06 15:36 | 13.37016 | 100.75913 | 19867 ft | 370 kts | 281° |
| 2026-05-06 15:37 | 13.37474 | 100.73343 | 19869 ft | 370 kts | 281° |
| 2026-05-06 15:37 | 13.37935 | 100.70746 | 19868 ft | 370 kts | 281° |
| 2026-05-06 15:37 | 13.38401 | 100.68131 | 19867 ft | 370 kts | 281° |
| 2026-05-06 15:37 | 13.38865 | 100.65526 | 19868 ft | 370 kts | 281° |
| 2026-05-06 15:38 | 13.39323 | 100.62956 | 19867 ft | 370 kts | 281° |
| 2026-05-06 15:38 | 13.39785 | 100.60356 | 19868 ft | 370 kts | 281° |
| 2026-05-06 15:38 | 13.40248 | 100.57744 | 19867 ft | 370 kts | 281° |
| 2026-05-06 15:38 | 13.40708 | 100.55136 | 19820 ft | 371 kts | 281° |
| 2026-05-06 15:39 | 13.41163 | 100.52567 | 19589 ft | 370 kts | 281° |
| 2026-05-06 15:39 | 13.41625 | 100.49973 | 19361 ft | 368 kts | 281° |
| 2026-05-06 15:39 | 13.42083 | 100.47388 | 19131 ft | 367 kts | 281° |
| 2026-05-06 15:39 | 13.42539 | 100.44800 | 18916 ft | 366 kts | 281° |
| 2026-05-06 15:40 | 13.42990 | 100.42238 | 18690 ft | 364 kts | 282° |
| 2026-05-06 15:40 | 13.43437 | 100.39713 | 18473 ft | 363 kts | 282° |
| 2026-05-06 15:40 | 13.44049 | 100.37192 | 18251 ft | 360 kts | 293° |
| 2026-05-06 15:40 | 13.45249 | 100.34969 | 18017 ft | 355 kts | 309° |
| 2026-05-06 15:41 | 13.46951 | 100.33191 | 17759 ft | 351 kts | 324° |
| 2026-05-06 15:41 | 13.49024 | 100.31954 | 17509 ft | 347 kts | 340° |
| 2026-05-06 15:41 | 13.51334 | 100.31268 | 17260 ft | 344 kts | 348° |
| 2026-05-06 15:41 | 13.53647 | 100.30704 | 17013 ft | 344 kts | 348° |
| 2026-05-06 15:42 | 13.55974 | 100.30135 | 16766 ft | 343 kts | 348° |
| 2026-05-06 15:42 | 13.58295 | 100.29566 | 16522 ft | 342 kts | 348° |
| 2026-05-06 15:42 | 13.60612 | 100.28996 | 16307 ft | 340 kts | 348° |
| 2026-05-06 15:42 | 13.62889 | 100.28433 | 16049 ft | 340 kts | 348° |
| 2026-05-06 15:43 | 13.65200 | 100.27862 | 15725 ft | 338 kts | 348° |
| 2026-05-06 15:43 | 13.67483 | 100.27298 | 15388 ft | 336 kts | 348° |
| 2026-05-06 15:43 | 13.69761 | 100.26735 | 15074 ft | 335 kts | 348° |
| 2026-05-06 15:43 | 13.71998 | 100.26202 | 14753 ft | 333 kts | 352° |
| 2026-05-06 15:44 | 13.74295 | 100.26084 | 14421 ft | 329 kts | 6° |
| 2026-05-06 15:44 | 13.76533 | 100.26557 | 14108 ft | 325 kts | 21° |
| 2026-05-06 15:44 | 13.78533 | 100.27553 | 13799 ft | 322 kts | 33° |
| 2026-05-06 15:44 | 13.80450 | 100.28762 | 13455 ft | 321 kts | 32° |
| 2026-05-06 15:45 | 13.82345 | 100.29955 | 13144 ft | 320 kts | 32° |
| 2026-05-06 15:45 | 13.84238 | 100.31148 | 12900 ft | 315 kts | 32° |
| 2026-05-06 15:45 | 13.86042 | 100.32353 | 12756 ft | 304 kts | 40° |
| 2026-05-06 15:45 | 13.87541 | 100.33835 | 12687 ft | 292 kts | 46° |
| 2026-05-06 15:46 | 13.88957 | 100.35291 | 12574 ft | 292 kts | 46° |
| 2026-05-06 15:46 | 13.90397 | 100.36775 | 12242 ft | 292 kts | 46° |
| 2026-05-06 15:46 | 13.91835 | 100.38258 | 11854 ft | 293 kts | 46° |
| 2026-05-06 15:46 | 13.93285 | 100.39756 | 11444 ft | 294 kts | 46° |
| 2026-05-06 15:47 | 13.94729 | 100.41253 | 11043 ft | 296 kts | 46° |
| 2026-05-06 15:47 | 13.96161 | 100.42741 | 10668 ft | 296 kts | 46° |
| 2026-05-06 15:47 | 13.97606 | 100.44244 | 10333 ft | 295 kts | 46° |
| 2026-05-06 15:47 | 13.99051 | 100.45745 | 10067 ft | 292 kts | 46° |
| 2026-05-06 15:48 | 14.00484 | 100.47234 | 9948 ft | 294 kts | 46° |
| 2026-05-06 15:48 | 14.01912 | 100.48717 | 9471 ft | 291 kts | 46° |
| 2026-05-06 15:48 | 14.03330 | 100.50190 | 9039 ft | 290 kts | 46° |
| 2026-05-06 15:48 | 14.04749 | 100.51660 | 8623 ft | 288 kts | 46° |
| 2026-05-06 15:49 | 14.06124 | 100.53087 | 8219 ft | 289 kts | 46° |
| 2026-05-06 15:49 | 14.07538 | 100.54555 | 7791 ft | 288 kts | 46° |
| 2026-05-06 15:49 | 14.08932 | 100.56004 | 7777 ft | 288 kts | 45° |
| 2026-05-06 15:49 | 14.10335 | 100.57462 | 6944 ft | 289 kts | 46° |
| 2026-05-06 15:50 | 14.11736 | 100.58917 | 6622 ft | 285 kts | 46° |
| 2026-05-06 15:50 | 14.13133 | 100.60367 | 6247 ft | 283 kts | 46° |
| 2026-05-06 15:50 | 14.14402 | 100.61893 | 5748 ft | 276 kts | 62° |
| 2026-05-06 15:50 | 14.14988 | 100.63748 | 5338 ft | 271 kts | 86° |
| 2026-05-06 15:51 | 14.14788 | 100.65662 | 4948 ft | 269 kts | 107° |
| 2026-05-06 15:51 | 14.13989 | 100.67411 | 4273 ft | 278 kts | 126° |
| 2026-05-06 15:51 | 14.12609 | 100.68813 | 3789 ft | 277 kts | 146° |
| 2026-05-06 15:51 | 14.10919 | 100.69611 | 3598 ft | 259 kts | 165° |
| 2026-05-06 15:52 | 14.09191 | 100.69818 | 3382 ft | 241 kts | 182° |
| 2026-05-06 15:52 | 14.07582 | 100.69521 | 3135 ft | 229 kts | 198° |
| 2026-05-06 15:52 | 14.06186 | 100.68846 | 2868 ft | 221 kts | 207° |
| 2026-05-06 15:52 | 14.04856 | 100.68099 | 2592 ft | 213 kts | 207° |
| 2026-05-06 15:53 | 14.03571 | 100.67377 | 2327 ft | 207 kts | 207° |
| 2026-05-06 15:53 | 14.02337 | 100.66685 | 2082 ft | 194 kts | 207° |
| 2026-05-06 15:53 | 14.01202 | 100.66047 | 1827 ft | 177 kts | 207° |
| 2026-05-06 15:53 | 14.00168 | 100.65467 | 1614 ft | 164 kts | 207° |
| 2026-05-06 15:54 | 13.99198 | 100.64923 | 1421 ft | 156 kts | 207° |
| 2026-05-06 15:54 | 13.98245 | 100.64388 | 1211 ft | 156 kts | 206° |
| 2026-05-06 15:54 | 13.97306 | 100.63862 | 1011 ft | 155 kts | 208° |
| 2026-05-06 15:54 | 13.96360 | 100.63331 | 827 ft | 155 kts | 208° |
| 2026-05-06 15:55 | 13.95401 | 100.62793 | 655 ft | 157 kts | 207° |
| 2026-05-06 15:55 | 13.94452 | 100.62259 | 459 ft | 157 kts | 207° |
| 2026-05-06 15:55 | 13.93492 | 100.61721 | 222 ft | 157 kts | 208° |
| 2026-05-06 15:55 | 13.92543 | 100.61187 | 51 ft | 156 kts | 207° |
| 2026-05-06 15:56 | 13.91685 | 100.60708 | 15 ft | 112 kts | 208° |
| 2026-05-06 15:56 | 13.91194 | 100.60430 | 17 ft | 31 kts | 211° |
| 2026-05-06 15:56 | 13.91114 | 100.60320 | 17 ft | 12 kts | 242° |
| 2026-05-06 15:56 | 13.91076 | 100.60248 | 18 ft | 10 kts | 234° |
| 2026-05-06 15:57 | 13.91039 | 100.60193 | 18 ft | 9 kts | 238° |
| 2026-05-06 15:57 | 13.91056 | 100.60159 | 18 ft | 6 kts | 4° |
| 2026-05-06 15:57 | 13.91088 | 100.60182 | 18 ft | 5 kts | 36° |
| 2026-05-06 15:57 | 13.91117 | 100.60201 | 17 ft | 5 kts | 26° |
| 2026-05-06 15:58 | 13.91137 | 100.60211 | 17 ft | 6 kts | 26° |
| 2026-05-06 15:58 | 13.91226 | 100.60262 | 19 ft | 12 kts | 30° |
| 2026-05-06 15:58 | 13.91274 | 100.60288 | 17 ft | 11 kts | 25° |
| 2026-05-06 15:58 | 13.91339 | 100.60325 | 17 ft | 10 kts | 30° |
| 2026-05-06 15:59 | 13.91400 | 100.60358 | 17 ft | 12 kts | 28° |
| 2026-05-06 15:59 | 13.91479 | 100.60403 | 17 ft | 12 kts | 29° |
| 2026-05-06 15:59 | 13.91550 | 100.60443 | 17 ft | 11 kts | 29° |
| 2026-05-06 15:59 | 13.91614 | 100.60478 | 17 ft | 10 kts | 28° |
| 2026-05-06 16:00 | 13.91668 | 100.60508 | 17 ft | 8 kts | 28° |
| 2026-05-06 16:00 | 13.91715 | 100.60535 | 19 ft | 7 kts | 29° |
| 2026-05-06 16:00 | 13.91756 | 100.60558 | 17 ft | 6 kts | 28° |
| 2026-05-06 16:00 | 13.91810 | 100.60587 | 17 ft | 10 kts | 23° |
| 2026-05-06 16:01 | 13.91860 | 100.60563 | 17 ft | 8 kts | 308° |
| 2026-05-06 16:01 | 13.91886 | 100.60520 | 17 ft | 7 kts | 299° |
| 2026-05-06 16:01 | 13.91907 | 100.60481 | 17 ft | 6 kts | 298° |
| 2026-05-06 16:01 | 13.91925 | 100.60447 | 17 ft | 5 kts | 299° |
| 2026-05-06 16:02 | 13.91941 | 100.60418 | 17 ft | 4 kts | 299° |
| 2026-05-06 16:02 | 13.91954 | 100.60393 | 17 ft | 4 kts | 298° |
| 2026-05-06 16:02 | 13.91965 | 100.60372 | 17 ft | 3 kts | 298° |
| 2026-05-06 16:02 | 13.91970 | 100.60357 | 17 ft | 2 kts | 275° |
| 2026-05-06 16:03 | 13.91950 | 100.60338 | 19 ft | 3 kts | 192° |
| 2026-05-06 16:03 | 13.91934 | 100.60333 | 17 ft | 2 kts | 204° |
| 2026-05-06 16:03 | 13.91924 | 100.60328 | 17 ft | 1 kts | 204° |
| 2026-05-06 16:03 | 13.91920 | 100.60326 | 17 ft | 0 kts | 206° |
| 2026-05-06 16:04 | 13.91914 | 100.60322 | 17 ft | 2 kts | 207° |
| 2026-05-06 16:04 | 13.91911 | 100.60321 | 20 ft | 0 kts | 208° |